Terminal Aerodrome Forecast
Issued by NWS Sioux Falls, SD

Home | Current Version | Previous Version | Text Only | Print | Product List | Glossary Off
Versions: 1 2 3 4 5 6 7 8 9 10 11 12 13 14 15 16 17 18 19

000
FTUS43 KFSD 311120
TAFFSD
TAF
KFSD 311120Z 3112/0112 18010KT P6SM SCT005 SCT250
      TEMPO 3112/3114 4SM BR
     FM311430 18013G18KT P6SM FEW008
     FM311600 18014G22KT P6SM FEW200
     FM312300 17009KT P6SM SCT200
     FM010500 17004KT P6SM BKN150=

USA.gov is the U.S. government's official web portal to all federal, state and local government web resources and services.